createdAt,value
2023-04-03T00:01:22.546Z,99.90
2023-04-03T00:03:49.367Z,99.90
2023-04-03T00:06:16.243Z,99.90
2023-04-03T00:08:43.082Z,99.90
2023-04-03T00:11:10.836Z,99.90
2023-04-03T00:13:38.894Z,99.90
2023-04-03T00:16:06.608Z,99.90
2023-04-03T00:18:33.505Z,99.90
2023-04-03T00:21:00.727Z,99.90
2023-04-03T00:23:27.543Z,99.90
2023-04-03T00:25:55.350Z,99.90
2023-04-03T00:28:22.550Z,99.90
2023-04-03T00:30:52.616Z,99.90
2023-04-03T00:33:25.302Z,99.90
2023-04-03T00:35:52.569Z,99.90
2023-04-03T00:38:19.487Z,99.90
2023-04-03T00:40:48.910Z,99.90
2023-04-03T00:43:23.722Z,99.90
2023-04-03T00:45:54.040Z,99.90
2023-04-03T00:48:32.967Z,99.90
2023-04-03T00:51:01.362Z,99.90
2023-04-03T00:53:54.074Z,99.90
2023-04-03T00:56:25.023Z,99.90
2023-04-03T00:59:18.123Z,99.90
2023-04-03T01:01:45.468Z,99.90
2023-04-03T01:04:37.828Z,99.90
2023-04-03T01:07:16.445Z,99.90
2023-04-03T01:09:44.248Z,99.90
2023-04-03T01:12:19.169Z,99.90
2023-04-03T01:14:47.523Z,99.90
2023-04-03T01:17:44.798Z,99.90
2023-04-03T01:20:32.792Z,99.90
2023-04-03T01:23:12.053Z,99.90
2023-04-03T01:25:44.930Z,99.90
2023-04-03T01:28:19.825Z,99.90
2023-04-03T01:31:28.388Z,99.90
2023-04-03T01:33:56.512Z,99.90
2023-04-03T01:36:31.008Z,99.90
2023-04-03T01:39:00.705Z,99.90
2023-04-03T01:41:27.966Z,99.90
2023-04-03T01:43:54.833Z,99.90
2023-04-03T01:46:22.061Z,99.90
2023-04-03T01:48:50.403Z,99.90
2023-04-03T01:51:17.858Z,99.90
2023-04-03T01:53:44.743Z,99.90
2023-04-03T01:56:11.751Z,99.90
2023-04-03T01:58:39.244Z,99.90
2023-04-03T02:01:06.928Z,99.90
2023-04-03T02:03:34.033Z,99.90
2023-04-03T02:06:00.897Z,99.90
2023-04-03T02:08:27.772Z,99.90
2023-04-03T02:10:54.642Z,99.90
2023-04-03T02:13:21.441Z,99.90
2023-04-03T02:15:48.773Z,99.90
2023-04-03T02:18:16.091Z,99.90
2023-04-03T02:20:43.197Z,99.90
2023-04-03T02:23:10.698Z,99.90
2023-04-03T02:25:38.924Z,99.90
2023-04-03T02:28:06.820Z,99.90
2023-04-03T02:30:33.742Z,99.90
2023-04-03T02:33:00.931Z,99.90
2023-04-03T02:35:27.912Z,99.90
2023-04-03T02:37:54.883Z,99.90
2023-04-03T02:40:21.687Z,99.90
2023-04-03T02:42:48.461Z,99.90
2023-04-03T02:45:15.316Z,99.90
2023-04-03T02:47:42.287Z,99.90
2023-04-03T02:50:09.563Z,99.90
2023-04-03T02:52:36.437Z,99.90
2023-04-03T02:55:03.689Z,99.90
2023-04-03T02:57:30.928Z,99.90
2023-04-03T02:59:57.897Z,99.90
2023-04-03T03:02:25.033Z,99.90
2023-04-03T03:04:51.848Z,99.90
2023-04-03T03:07:18.731Z,99.90
2023-04-03T03:09:45.499Z,99.90
2023-04-03T03:12:12.398Z,99.90
2023-04-03T03:14:39.253Z,99.90
2023-04-03T03:17:06.248Z,99.90
2023-04-03T03:19:33.047Z,99.90
2023-04-03T03:21:59.878Z,99.90
2023-04-03T03:24:26.676Z,99.90
2023-04-03T03:26:53.549Z,99.90
2023-04-03T03:29:20.493Z,99.90
2023-04-03T03:31:47.381Z,99.90
2023-04-03T03:34:14.386Z,99.90
2023-04-03T03:36:41.792Z,99.90
2023-04-03T03:39:08.637Z,99.90
2023-04-03T03:41:35.505Z,99.90
2023-04-03T03:44:02.402Z,99.90
2023-04-03T03:46:29.266Z,99.90
2023-04-03T03:48:56.198Z,99.90
2023-04-03T03:51:23.063Z,99.90
2023-04-03T03:53:49.911Z,99.90
2023-04-03T03:56:16.775Z,99.90
2023-04-03T03:58:43.623Z,99.90
2023-04-03T04:01:10.456Z,99.90
2023-04-03T04:03:38.151Z,99.90
2023-04-03T04:06:05.344Z,99.90
2023-04-03T04:08:32.261Z,99.90
2023-04-03T04:10:59.040Z,99.90
2023-04-03T04:13:26.120Z,99.90
2023-04-03T04:15:52.933Z,99.90
2023-04-03T04:18:21.151Z,99.90
2023-04-03T04:20:48.026Z,99.90
2023-04-03T04:23:15.236Z,99.90
2023-04-03T04:25:42.103Z,99.90
2023-04-03T04:28:09.005Z,99.90
2023-04-03T04:30:35.911Z,99.90
2023-04-03T04:33:02.817Z,99.90
2023-04-03T04:35:29.942Z,99.90
2023-04-03T04:37:57.034Z,99.90
2023-04-03T04:40:24.084Z,99.90
2023-04-03T04:42:51.015Z,99.90
2023-04-03T04:45:17.920Z,99.90
2023-04-03T04:47:45.494Z,99.90
2023-04-03T04:50:12.992Z,99.90
2023-04-03T04:52:40.063Z,99.90
2023-04-03T04:55:07.579Z,99.90
2023-04-03T04:57:35.615Z,99.90
2023-04-03T05:00:02.642Z,99.90
2023-04-03T05:02:29.577Z,99.90
2023-04-03T05:04:56.390Z,99.90
2023-04-03T05:07:23.638Z,99.90
2023-04-03T05:09:50.517Z,99.90
2023-04-03T05:12:18.187Z,99.90
2023-04-03T05:14:45.218Z,99.90
2023-04-03T05:17:12.158Z,99.90
2023-04-03T05:19:39.042Z,99.90
2023-04-03T05:22:05.844Z,99.90
2023-04-03T05:24:32.688Z,99.90
2023-04-03T05:26:59.835Z,99.90
2023-04-03T05:29:26.663Z,99.90
2023-04-03T05:31:53.541Z,99.90
2023-04-03T05:34:20.515Z,99.90
2023-04-03T05:36:47.431Z,99.90
2023-04-03T05:39:14.672Z,99.90
2023-04-03T05:41:41.527Z,99.90
2023-04-03T05:44:08.379Z,99.90
2023-04-03T05:46:35.458Z,99.90
2023-04-03T05:49:02.248Z,99.90
2023-04-03T05:51:36.649Z,99.90
2023-04-03T05:54:28.648Z,99.90
2023-04-03T05:56:56.113Z,99.90
2023-04-03T05:59:23.395Z,99.90
2023-04-03T06:01:50.415Z,99.90
2023-04-03T06:04:17.511Z,99.90
2023-04-03T06:06:58.217Z,99.90
2023-04-03T06:09:29.961Z,99.90
2023-04-03T06:11:59.458Z,99.90
2023-04-03T06:14:27.506Z,99.90
2023-04-03T06:16:55.259Z,99.90
2023-04-03T06:19:22.201Z,99.90
2023-04-03T06:21:49.050Z,99.90
2023-04-03T06:24:17.740Z,99.90
2023-04-03T06:26:45.241Z,99.90
2023-04-03T06:29:12.107Z,99.90
2023-04-03T06:31:39.034Z,99.90
2023-04-03T06:34:09.542Z,99.90
2023-04-03T06:36:36.942Z,99.90
2023-04-03T06:39:04.162Z,99.90
2023-04-03T06:41:31.610Z,99.90
2023-04-03T06:43:59.378Z,99.90
2023-04-03T06:46:27.957Z,99.90
2023-04-03T06:48:55.000Z,99.90
2023-04-03T06:51:23.304Z,99.90
2023-04-03T06:53:52.348Z,99.90
2023-04-03T06:56:19.799Z,99.90
2023-04-03T06:58:47.173Z,99.90
2023-04-03T07:01:16.571Z,99.90
2023-04-03T07:03:43.756Z,99.90
2023-04-03T07:06:15.828Z,99.90
2023-04-03T07:08:43.431Z,99.90
2023-04-03T07:11:11.446Z,99.90
2023-04-03T07:13:39.508Z,99.90
2023-04-03T07:16:07.271Z,99.90
2023-04-03T07:18:34.784Z,99.90
2023-04-03T07:21:01.655Z,99.90
2023-04-03T07:23:28.866Z,99.90
2023-04-03T07:25:56.207Z,99.90
2023-04-03T07:28:23.970Z,99.90
2023-04-03T07:31:03.965Z,99.90
2023-04-03T07:33:32.030Z,99.90
2023-04-03T07:35:59.355Z,99.90
2023-04-03T07:38:26.623Z,99.90
2023-04-03T07:40:53.770Z,99.90
2023-04-03T07:43:22.928Z,99.90
2023-04-03T07:45:51.744Z,99.90
2023-04-03T07:48:24.764Z,99.90
2023-04-03T07:50:53.021Z,99.90
2023-04-03T07:53:19.816Z,99.90
2023-04-03T07:55:50.035Z,99.90
2023-04-03T07:58:19.393Z,99.90
2023-04-03T08:00:46.985Z,99.90
2023-04-03T08:03:14.837Z,99.90
2023-04-03T08:05:43.738Z,99.90
2023-04-03T08:08:13.005Z,99.90
2023-04-03T08:10:40.600Z,99.90
2023-04-03T08:13:08.924Z,99.90
2023-04-03T08:15:36.370Z,99.90
2023-04-03T08:18:04.806Z,99.90
2023-04-03T08:20:31.796Z,99.90
2023-04-03T08:22:58.696Z,99.90
2023-04-03T08:25:25.821Z,99.90
2023-04-03T08:27:52.696Z,99.90
2023-04-03T08:30:19.668Z,99.90
2023-04-03T08:32:46.828Z,99.90
2023-04-03T08:35:13.809Z,99.90
2023-04-03T08:37:41.312Z,99.90
2023-04-03T08:40:15.141Z,99.90
2023-04-03T08:43:06.028Z,99.90
2023-04-03T08:45:51.279Z,99.90
2023-04-03T08:48:32.822Z,99.90
2023-04-03T08:51:05.468Z,99.90
2023-04-03T08:53:41.618Z,99.90
2023-04-03T08:56:11.252Z,99.90
2023-04-03T08:58:57.623Z,99.90
2023-04-03T09:01:35.883Z,99.90
2023-04-03T09:04:10.074Z,99.90
2023-04-03T09:06:39.308Z,99.90
2023-04-03T09:09:44.480Z,99.90
2023-04-03T09:12:27.450Z,99.90
2023-04-03T09:15:27.843Z,99.90
2023-04-03T09:18:16.662Z,99.90
2023-04-03T09:21:13.665Z,99.90
2023-04-03T09:23:52.943Z,99.90
2023-04-03T09:26:27.495Z,99.90
2023-04-03T09:29:02.137Z,99.90
2023-04-03T09:31:41.086Z,99.90
2023-04-03T09:34:27.413Z,99.90
2023-04-03T09:36:57.112Z,99.90
2023-04-03T09:39:30.286Z,99.90
2023-04-03T09:42:05.941Z,99.90
2023-04-03T09:44:38.726Z,99.90
2023-04-03T09:47:34.831Z,99.90
2023-04-03T09:50:14.225Z,99.90
2023-04-03T09:52:43.970Z,99.90
2023-04-03T09:55:32.451Z,99.90
2023-04-03T09:58:02.851Z,99.90
2023-04-03T10:00:38.507Z,99.90
2023-04-03T10:03:07.073Z,99.90
2023-04-03T10:05:41.501Z,99.90
2023-04-03T10:08:33.495Z,99.90
2023-04-03T10:11:16.815Z,99.90
2023-04-03T10:14:05.923Z,99.90
2023-04-03T10:16:42.904Z,99.90
2023-04-03T10:19:18.571Z,99.90
2023-04-03T10:22:17.135Z,99.90
2023-04-03T10:25:16.907Z,99.90
2023-04-03T10:28:17.326Z,99.90
2023-04-03T10:31:02.375Z,99.90
2023-04-03T10:34:13.827Z,99.90
2023-04-03T10:36:57.605Z,99.90
2023-04-03T10:39:40.987Z,99.90
2023-04-03T10:42:24.596Z,99.90
2023-04-03T10:45:01.110Z,99.90
2023-04-03T10:47:42.810Z,99.90
2023-04-03T10:50:45.856Z,99.90
2023-04-03T10:53:29.618Z,99.90
2023-04-03T10:56:33.670Z,99.90
2023-04-03T10:59:31.666Z,99.90
2023-04-03T11:02:08.507Z,99.90
2023-04-03T11:04:40.304Z,99.90
2023-04-03T11:07:20.994Z,99.90
2023-04-03T11:09:55.246Z,99.90
2023-04-03T11:12:48.112Z,99.90
2023-04-03T11:15:18.995Z,99.90
2023-04-03T11:17:51.998Z,99.90
2023-04-03T11:20:34.345Z,99.90
2023-04-03T11:23:21.998Z,99.90
2023-04-03T11:25:54.572Z,99.90
2023-04-03T11:28:21.560Z,99.90
2023-04-03T11:30:52.899Z,99.90
2023-04-03T11:33:42.841Z,99.90
2023-04-03T11:36:34.799Z,99.90
2023-04-03T11:39:33.110Z,99.90
2023-04-03T11:42:24.123Z,99.90
2023-04-03T11:44:50.998Z,99.90
2023-04-03T11:47:51.761Z,99.90
2023-04-03T11:50:41.259Z,99.90
2023-04-03T11:53:08.286Z,99.90
2023-04-03T11:55:35.104Z,99.90
2023-04-03T11:58:02.023Z,99.90
2023-04-03T12:00:50.588Z,99.90
2023-04-03T12:03:26.659Z,99.90
2023-04-03T12:05:55.050Z,99.90
2023-04-03T12:08:46.615Z,99.90
2023-04-03T12:11:13.478Z,99.90
2023-04-03T12:13:58.299Z,99.90
2023-04-03T12:16:58.491Z,99.90
2023-04-03T12:19:44.451Z,99.90
2023-04-03T12:22:17.600Z,99.90
2023-04-03T12:24:52.580Z,99.90
2023-04-03T12:27:41.831Z,99.90
2023-04-03T12:30:20.032Z,99.90
2023-04-03T12:33:12.560Z,99.90
2023-04-03T12:35:55.161Z,99.90
2023-04-03T12:39:07.358Z,99.90
2023-04-03T12:42:10.618Z,99.90
2023-04-03T12:44:53.397Z,99.90
2023-04-03T12:47:37.101Z,99.90
2023-04-03T12:50:17.182Z,99.90
2023-04-03T12:52:51.433Z,99.90
2023-04-03T12:55:21.327Z,99.90
2023-04-03T12:57:48.865Z,99.90
2023-04-03T13:00:34.428Z,99.90
2023-04-03T13:03:05.168Z,99.90
2023-04-03T13:05:35.940Z,99.70
2023-04-03T13:08:11.909Z,98.50
2023-04-03T13:11:00.589Z,96.90
2023-04-03T13:13:27.912Z,96.10
2023-04-03T13:15:56.064Z,90.90
2023-04-03T13:18:34.649Z,81.60
2023-04-03T13:21:19.700Z,74.60
2023-04-03T13:23:57.397Z,74.70
2023-04-03T13:26:31.942Z,76.60
2023-04-03T13:29:09.458Z,72.10
2023-04-03T13:31:41.375Z,72.10
2023-04-03T13:34:18.702Z,68.20
2023-04-03T13:37:00.345Z,71.90
2023-04-03T13:39:30.718Z,74.00
2023-04-03T13:42:02.787Z,76.70
2023-04-03T13:44:37.008Z,78.30
2023-04-03T13:47:24.357Z,79.60
2023-04-03T13:50:12.150Z,81.20
2023-04-03T13:53:13.243Z,79.80
2023-04-03T13:55:59.289Z,78.70
2023-04-03T13:58:31.394Z,81.90
2023-04-03T14:01:21.275Z,81.90
2023-04-03T14:04:01.953Z,81.90
2023-04-03T14:06:30.307Z,81.60
2023-04-03T14:08:57.159Z,76.50
2023-04-03T14:11:29.598Z,74.30
2023-04-03T14:14:02.131Z,65.70
2023-04-03T14:16:32.621Z,61.90
2023-04-03T14:18:59.535Z,57.70
2023-04-03T14:21:26.887Z,55.40
2023-04-03T14:23:53.736Z,51.40
2023-04-03T14:26:27.438Z,54.40
2023-04-03T14:28:56.620Z,55.30
2023-04-03T14:31:24.355Z,51.00
2023-04-03T14:33:51.469Z,54.30
2023-04-03T14:36:23.660Z,49.70
2023-04-03T14:38:51.992Z,49.40
2023-04-03T14:41:23.097Z,48.50
2023-04-03T14:43:51.205Z,47.20
2023-04-03T14:46:26.445Z,48.40
2023-04-03T14:48:54.686Z,49.70
2023-04-03T14:51:21.791Z,48.40
2023-04-03T14:53:50.089Z,48.40
2023-04-03T14:56:27.411Z,46.70
2023-04-03T14:59:00.258Z,46.60
2023-04-03T15:01:29.244Z,45.60
2023-04-03T15:03:56.346Z,49.00
2023-04-03T15:06:23.404Z,47.00
2023-04-03T15:08:50.435Z,47.20
2023-04-03T15:11:17.266Z,47.50
2023-04-03T15:13:44.312Z,50.60
2023-04-03T15:16:20.428Z,49.90
2023-04-03T15:18:48.373Z,49.00
2023-04-03T15:21:15.287Z,48.60
2023-04-03T15:23:43.008Z,48.50
2023-04-03T15:26:10.513Z,44.90
2023-04-03T15:28:46.565Z,44.10
2023-04-03T15:31:13.447Z,43.90
2023-04-03T15:33:40.441Z,47.30
2023-04-03T15:36:17.213Z,48.10
2023-04-03T15:38:54.459Z,47.30
2023-04-03T15:41:21.978Z,49.80
2023-04-03T15:43:48.798Z,50.90
2023-04-03T15:46:15.857Z,52.40
2023-04-03T15:48:43.925Z,55.60
2023-04-03T15:51:11.155Z,55.90
2023-04-03T15:53:37.984Z,56.80
2023-04-03T15:56:05.643Z,56.60
2023-04-03T15:58:32.582Z,59.10
2023-04-03T16:00:59.546Z,60.00
2023-04-03T16:03:26.533Z,59.70
2023-04-03T16:05:53.792Z,60.60
2023-04-03T16:08:21.094Z,59.90
2023-04-03T16:10:48.008Z,60.30
2023-04-03T16:13:15.789Z,61.70
2023-04-03T16:15:42.956Z,61.60
2023-04-03T16:18:11.341Z,62.10
2023-04-03T16:20:38.467Z,64.20
2023-04-03T16:23:05.861Z,66.40
2023-04-03T16:25:32.769Z,68.70
2023-04-03T16:27:59.699Z,69.80
2023-04-03T16:30:26.999Z,71.20
2023-04-03T16:32:54.538Z,71.20
2023-04-03T16:35:21.471Z,70.80
2023-04-03T16:37:48.421Z,70.00
2023-04-03T16:40:15.732Z,71.60
2023-04-03T16:42:42.733Z,70.50
2023-04-03T16:45:11.129Z,70.70
2023-04-03T16:47:38.082Z,70.20
2023-04-03T16:50:05.870Z,70.80
2023-04-03T16:52:32.771Z,72.50
2023-04-03T16:54:59.885Z,73.30
2023-04-03T16:57:27.041Z,74.50
2023-04-03T16:59:54.834Z,73.70
2023-04-03T17:02:27.506Z,72.90
2023-04-03T17:04:55.233Z,73.40
2023-04-03T17:07:25.362Z,72.20
2023-04-03T17:09:54.304Z,73.00
2023-04-03T17:12:22.494Z,73.80
2023-04-03T17:14:49.571Z,74.90
2023-04-03T17:17:21.495Z,75.80
2023-04-03T17:19:48.717Z,75.80
2023-04-03T17:22:17.546Z,76.80
2023-04-03T17:24:45.845Z,77.00
2023-04-03T17:27:13.069Z,76.90
2023-04-03T17:29:39.889Z,77.40
2023-04-03T17:32:06.766Z,77.60
2023-04-03T17:34:33.767Z,78.10
2023-04-03T17:37:00.671Z,78.60
2023-04-03T17:39:27.616Z,78.60
2023-04-03T17:41:55.122Z,78.70
2023-04-03T17:44:22.811Z,80.30
2023-04-03T17:46:49.664Z,80.60
2023-04-03T17:49:18.864Z,81.40
2023-04-03T17:51:45.757Z,82.30
2023-04-03T17:54:12.896Z,83.30
2023-04-03T17:56:39.793Z,82.80
2023-04-03T17:59:06.736Z,82.60
2023-04-03T18:01:36.728Z,82.40
2023-04-03T18:04:05.882Z,83.20
2023-04-03T18:06:45.709Z,83.70
2023-04-03T18:09:19.055Z,84.20
2023-04-03T18:11:47.653Z,83.70
2023-04-03T18:14:22.614Z,83.80
2023-04-03T18:16:49.878Z,84.20
2023-04-03T18:22:09.082Z,83.70
2023-04-03T18:24:36.514Z,84.80
2023-04-03T18:27:13.523Z,85.10
2023-04-03T18:29:42.959Z,84.40
2023-04-03T18:32:13.509Z,84.50
2023-04-03T18:34:40.635Z,85.00
2023-04-03T18:37:07.634Z,86.60
2023-04-03T18:39:34.485Z,85.40
2023-04-03T18:42:10.052Z,87.10
2023-04-03T18:44:39.271Z,87.60
2023-04-03T18:47:07.877Z,87.50
2023-04-03T18:49:36.647Z,87.20
2023-04-03T18:52:04.571Z,87.20
2023-04-03T18:54:32.504Z,87.40
2023-04-03T18:56:59.535Z,86.90
2023-04-03T18:59:27.425Z,88.10
2023-04-03T19:01:55.601Z,87.40
2023-04-03T19:04:23.395Z,88.50
2023-04-03T19:06:51.451Z,88.60
2023-04-03T19:09:18.364Z,89.30
2023-04-03T19:11:45.397Z,89.70
2023-04-03T19:14:16.505Z,90.10
2023-04-03T19:16:44.960Z,89.60
2023-04-03T19:19:12.597Z,89.70
2023-04-03T19:21:41.425Z,90.00
2023-04-03T19:24:11.602Z,90.50
2023-04-03T19:26:40.798Z,90.70
2023-04-03T19:29:08.216Z,90.70
2023-04-03T19:31:37.115Z,90.80
2023-04-03T19:34:05.498Z,90.70
2023-04-03T19:36:33.360Z,90.90
2023-04-03T19:39:00.254Z,90.80
2023-04-03T19:41:30.953Z,91.40
2023-04-03T19:43:58.179Z,91.10
2023-04-03T19:46:27.300Z,91.40
2023-04-03T19:48:54.650Z,91.40
2023-04-03T19:51:21.762Z,91.80
2023-04-03T19:53:48.788Z,91.80
2023-04-03T19:56:20.741Z,92.10
2023-04-03T19:58:53.670Z,92.30
2023-04-03T20:01:24.255Z,92.40
2023-04-03T20:03:51.701Z,92.30
2023-04-03T20:06:18.841Z,92.40
2023-04-03T20:08:45.665Z,92.20
2023-04-03T20:11:12.604Z,92.30
2023-04-03T20:13:39.671Z,92.20
2023-04-03T20:16:08.314Z,92.50
2023-04-03T20:18:35.888Z,92.50
2023-04-03T20:21:04.869Z,92.40
2023-04-03T20:23:33.200Z,92.70
2023-04-03T20:26:09.539Z,92.70
2023-04-03T20:28:39.066Z,92.80
2023-04-03T20:31:07.836Z,93.00
2023-04-03T20:33:35.364Z,93.20
2023-04-03T20:36:02.436Z,93.40
2023-04-03T20:38:29.377Z,93.70
2023-04-03T20:40:56.211Z,93.90
2023-04-03T20:43:23.683Z,93.80
2023-04-03T20:45:50.860Z,94.20
2023-04-03T20:48:18.418Z,94.30
2023-04-03T20:50:46.483Z,94.30
2023-04-03T20:53:14.746Z,94.50
2023-04-03T20:55:42.287Z,94.50
2023-04-03T20:58:09.315Z,94.50
2023-04-03T21:00:37.902Z,94.50
2023-04-03T21:03:05.822Z,94.80
2023-04-03T21:05:34.552Z,95.00
2023-04-03T21:08:57.678Z,95.40
2023-04-03T21:12:20.653Z,95.50
2023-04-03T21:15:45.193Z,95.50
2023-04-03T21:18:12.381Z,95.70
2023-04-03T21:20:43.112Z,95.80
2023-04-03T21:23:11.151Z,95.70
2023-04-03T21:25:38.047Z,95.80
2023-04-03T21:28:04.868Z,96.00
2023-04-03T21:30:31.708Z,96.00
2023-04-03T21:32:58.781Z,96.10
2023-04-03T21:35:26.049Z,96.40
2023-04-03T21:37:52.848Z,96.40
2023-04-03T21:40:19.742Z,96.40
2023-04-03T21:42:46.647Z,96.40
2023-04-03T21:45:15.996Z,96.40
2023-04-03T21:47:43.929Z,96.80
2023-04-03T21:50:11.347Z,97.10
2023-04-03T21:52:38.217Z,97.40
2023-04-03T21:55:05.546Z,97.80
2023-04-03T21:57:32.384Z,97.20
2023-04-03T21:59:59.392Z,97.60
2023-04-03T22:02:29.884Z,97.70
2023-04-03T22:04:56.740Z,97.70
2023-04-03T22:07:23.630Z,97.60
2023-04-03T22:09:50.723Z,97.60
2023-04-03T22:12:17.664Z,98.20
2023-04-03T22:14:44.671Z,98.30
2023-04-03T22:17:11.723Z,98.80
2023-04-03T22:19:39.045Z,98.60
2023-04-03T22:22:05.974Z,98.50
2023-04-03T22:24:32.768Z,98.70
2023-04-03T22:26:59.586Z,98.90
2023-04-03T22:29:27.414Z,99.00
2023-04-03T22:31:54.331Z,99.30
2023-04-03T22:34:22.556Z,99.40
2023-04-03T22:36:49.376Z,99.60
2023-04-03T22:39:16.422Z,99.90
2023-04-03T22:41:45.346Z,99.90
2023-04-03T22:44:12.711Z,99.90
2023-04-03T22:46:39.753Z,99.90
2023-04-03T22:49:06.649Z,99.90
2023-04-03T22:51:33.504Z,99.90
2023-04-03T22:54:00.538Z,99.90
2023-04-03T22:56:27.645Z,99.90
2023-04-03T22:58:55.190Z,99.90
2023-04-03T23:01:24.074Z,99.90
2023-04-03T23:03:51.721Z,99.90
2023-04-03T23:06:18.660Z,99.90
2023-04-03T23:08:45.490Z,99.90
2023-04-03T23:11:12.598Z,99.90
2023-04-03T23:13:39.506Z,99.90
2023-04-03T23:16:06.782Z,99.90
2023-04-03T23:18:33.836Z,99.90
2023-04-03T23:21:03.271Z,99.90
2023-04-03T23:23:30.754Z,99.90
2023-04-03T23:26:00.357Z,99.90
2023-04-03T23:28:28.842Z,99.90
2023-04-03T23:31:05.513Z,99.90
2023-04-03T23:33:33.294Z,99.90
2023-04-03T23:36:07.278Z,99.90
2023-04-03T23:38:34.898Z,99.90
2023-04-03T23:41:02.138Z,99.90
2023-04-03T23:43:29.280Z,99.90
2023-04-03T23:45:56.314Z,99.90
2023-04-03T23:48:23.186Z,99.90
2023-04-03T23:50:49.990Z,99.90
2023-04-03T23:53:17.199Z,99.90
2023-04-03T23:55:44.164Z,99.90
2023-04-03T23:58:11.034Z,99.90
